createdAt,value
2018-06-11T00:03:19.372Z,59.40
2018-06-11T00:08:10.263Z,59.40
2018-06-11T00:13:01.211Z,59.50
2018-06-11T00:17:59.354Z,59.80
2018-06-11T00:22:50.318Z,59.80
2018-06-11T00:27:41.214Z,59.50
2018-06-11T00:32:32.096Z,59.90
2018-06-11T00:37:23.788Z,59.70
2018-06-11T00:42:14.672Z,59.60
2018-06-11T00:47:05.552Z,59.70
2018-06-11T00:51:56.445Z,59.90
2018-06-11T00:56:47.352Z,59.80
2018-06-11T01:01:38.250Z,59.60
2018-06-11T01:06:29.139Z,59.50
2018-06-11T01:11:20.820Z,59.50
2018-06-11T01:16:11.724Z,59.40
2018-06-11T01:21:02.676Z,59.40
2018-06-11T01:25:53.568Z,59.50
2018-06-11T01:30:44.485Z,59.50
2018-06-11T01:35:35.367Z,59.50
2018-06-11T01:40:27.023Z,59.80
2018-06-11T01:45:17.931Z,59.80
2018-06-11T01:50:08.830Z,59.80
2018-06-11T01:55:00.460Z,59.90
2018-06-11T01:59:51.463Z,59.80
2018-06-11T02:04:42.452Z,60.00
2018-06-11T02:09:33.380Z,59.80
2018-06-11T02:14:24.265Z,60.00
2018-06-11T02:19:15.189Z,60.00
2018-06-11T02:24:06.132Z,59.80
2018-06-11T02:28:57.015Z,59.80
2018-06-11T02:33:47.900Z,59.70
2018-06-11T02:38:38.909Z,59.70
2018-06-11T02:43:29.795Z,59.80
2018-06-11T02:48:20.732Z,59.80
2018-06-11T02:53:11.616Z,59.70
2018-06-11T02:58:02.560Z,59.60
2018-06-11T03:02:53.453Z,59.70
2018-06-11T03:07:44.340Z,59.60
2018-06-11T03:12:36.041Z,60.00
2018-06-11T03:17:26.958Z,60.00
2018-06-11T03:22:17.851Z,59.40
2018-06-11T03:27:08.735Z,60.50
2018-06-11T03:32:00.691Z,60.50
2018-06-11T03:36:51.588Z,60.50
2018-06-11T03:41:43.211Z,61.10
2018-06-11T03:46:34.876Z,60.40
2018-06-11T03:51:26.507Z,60.20
2018-06-11T03:56:18.196Z,60.10
2018-06-11T04:01:09.098Z,60.10
2018-06-11T04:06:00.067Z,59.80
2018-06-11T04:10:50.987Z,59.80
2018-06-11T04:15:41.856Z,60.40
2018-06-11T04:20:32.739Z,60.70
2018-06-11T04:25:24.416Z,60.30
2018-06-11T04:30:15.296Z,60.20
2018-06-11T04:35:07.004Z,60.50
2018-06-11T04:39:58.015Z,60.50
2018-06-11T04:44:48.932Z,60.40
2018-06-11T04:49:39.832Z,60.30
2018-06-11T04:54:30.708Z,60.40
2018-06-11T04:59:22.386Z,60.80
2018-06-11T05:04:13.284Z,60.80
2018-06-11T05:09:04.201Z,60.80
2018-06-11T05:13:55.094Z,60.90
2018-06-11T05:18:46.724Z,61.50
2018-06-11T05:23:38.346Z,61.40
2018-06-11T05:28:29.972Z,61.30
2018-06-11T05:33:20.856Z,61.20
2018-06-11T05:38:11.739Z,61.40
2018-06-11T05:43:03.368Z,60.90
2018-06-11T05:47:55.048Z,61.10
2018-06-11T05:52:45.968Z,61.00
2018-06-11T05:57:36.879Z,61.00
2018-06-11T06:02:27.811Z,61.20
2018-06-11T06:07:18.728Z,61.70
2018-06-11T06:12:09.612Z,61.40
2018-06-11T06:17:00.864Z,61.40
2018-06-11T06:21:51.743Z,61.20
2018-06-11T06:26:43.374Z,61.40
2018-06-11T06:31:35.090Z,61.20
2018-06-11T06:36:25.971Z,61.20
2018-06-11T06:41:17.104Z,61.40
2018-06-11T06:46:08.059Z,61.40
2018-06-11T06:50:59.047Z,61.30
2018-06-11T06:55:49.975Z,61.40
2018-06-11T07:00:40.856Z,61.50
2018-06-11T07:05:31.743Z,61.30
2018-06-11T07:10:23.368Z,61.40
2018-06-11T07:15:15.114Z,61.40
2018-06-11T07:20:06.750Z,61.30
2018-06-11T07:24:58.384Z,61.20
2018-06-11T07:29:50.008Z,61.20
2018-06-11T07:34:42.434Z,61.10
2018-06-11T07:39:33.343Z,61.10
2018-06-11T07:44:24.232Z,61.20
2018-06-11T07:49:15.110Z,61.10
2018-06-11T07:54:06.026Z,60.70
2018-06-11T07:58:56.909Z,60.80
2018-06-11T08:03:47.800Z,60.80
2018-06-11T08:08:38.706Z,61.00
2018-06-11T08:13:30.395Z,61.20
2018-06-11T08:18:21.244Z,61.20
2018-06-11T08:23:12.158Z,61.30
2018-06-11T08:28:03.039Z,61.40
2018-06-11T08:32:53.975Z,61.00
2018-06-11T08:37:44.880Z,61.00
2018-06-11T08:42:35.766Z,60.90
2018-06-11T08:47:26.693Z,60.80
2018-06-11T08:52:17.632Z,60.50
2018-06-11T08:57:08.530Z,60.50
2018-06-11T09:01:59.415Z,60.20
2018-06-11T09:06:51.119Z,59.90
2018-06-11T09:11:42.004Z,59.80
2018-06-11T09:16:32.939Z,59.60
2018-06-11T09:21:23.842Z,59.50
2018-06-11T09:26:14.762Z,59.20
2018-06-11T09:31:05.757Z,58.90
2018-06-11T09:35:56.608Z,58.70
2018-06-11T09:40:47.496Z,58.40
2018-06-11T09:45:39.120Z,58.00
2018-06-11T09:50:30.744Z,57.80
2018-06-11T09:55:21.646Z,57.80
2018-06-11T10:00:12.539Z,57.00
2018-06-11T10:05:03.439Z,57.30
2018-06-11T10:09:54.324Z,57.20
2018-06-11T10:14:46.093Z,57.10
2018-06-11T10:19:36.976Z,57.00
2018-06-11T10:24:28.603Z,56.70
2018-06-11T10:29:19.507Z,56.60
2018-06-11T10:34:10.419Z,56.60
2018-06-11T10:39:01.365Z,56.50
2018-06-11T10:43:52.257Z,56.20
2018-06-11T10:48:43.149Z,56.10
2018-06-11T10:53:34.036Z,55.90
2018-06-11T10:58:25.667Z,55.50
2018-06-11T11:03:17.298Z,55.30
2018-06-11T11:08:08.947Z,55.30
2018-06-11T11:12:59.840Z,55.10
2018-06-11T11:17:50.732Z,55.20
2018-06-11T11:22:41.636Z,55.00
2018-06-11T11:27:32.530Z,54.60
2018-06-11T11:32:23.452Z,54.20
2018-06-11T11:37:14.358Z,53.80
2018-06-11T11:42:05.247Z,53.40
2018-06-11T11:46:56.958Z,52.60
2018-06-11T11:51:47.845Z,52.60
2018-06-11T11:56:38.745Z,52.20
2018-06-11T12:01:29.650Z,51.90
2018-06-11T12:06:21.335Z,51.20
2018-06-11T12:11:12.223Z,51.00
2018-06-11T12:16:03.140Z,50.90
2018-06-11T12:20:54.106Z,50.90
2018-06-11T12:25:44.996Z,50.60
2018-06-11T12:30:35.897Z,50.30
2018-06-11T12:35:26.785Z,49.60
2018-06-11T12:40:17.764Z,49.40
2018-06-11T12:45:08.644Z,48.70
2018-06-11T12:49:59.536Z,48.20
2018-06-11T12:54:51.172Z,47.50
2018-06-11T12:59:42.056Z,47.40
2018-06-11T13:04:32.946Z,47.80
2018-06-11T13:09:23.833Z,47.30
2018-06-11T13:14:15.474Z,46.00
2018-06-11T13:19:07.099Z,45.70
2018-06-11T13:23:57.981Z,45.70
2018-06-11T13:28:48.891Z,45.40
2018-06-11T13:33:39.785Z,45.70
2018-06-11T13:38:30.686Z,45.70
2018-06-11T13:43:22.327Z,44.90
2018-06-11T13:48:13.957Z,44.60
2018-06-11T13:53:04.839Z,44.60
2018-06-11T13:57:55.722Z,43.70
2018-06-11T14:02:46.616Z,43.90
2018-06-11T14:07:38.263Z,43.10
2018-06-11T14:12:29.201Z,43.10
2018-06-11T14:17:20.084Z,42.80
2018-06-11T14:22:11.764Z,41.40
2018-06-11T14:27:02.657Z,41.30
2018-06-11T14:31:53.559Z,40.70
2018-06-11T14:36:44.451Z,41.70
2018-06-11T14:41:35.440Z,42.40
2018-06-11T14:46:26.320Z,43.10
2018-06-11T14:51:17.207Z,42.40
2018-06-11T14:56:08.087Z,42.30
2018-06-11T15:00:58.976Z,42.80
2018-06-11T15:05:49.867Z,42.60
2018-06-11T15:10:41.492Z,42.60
2018-06-11T15:15:32.514Z,42.50
2018-06-11T15:20:23.400Z,42.30
2018-06-11T15:25:14.321Z,41.70
2018-06-11T15:30:05.210Z,41.40
2018-06-11T15:34:56.110Z,41.20
2018-06-11T15:39:47.005Z,41.80
2018-06-11T15:44:37.889Z,41.70
2018-06-11T15:49:28.798Z,42.40
2018-06-11T15:54:19.701Z,42.50
2018-06-11T15:59:10.583Z,42.50
2018-06-11T16:04:01.469Z,42.60
2018-06-11T16:08:52.397Z,42.60
2018-06-11T16:13:43.316Z,42.60
2018-06-11T16:18:34.266Z,42.50
2018-06-11T16:23:25.116Z,42.70
2018-06-11T16:28:16.028Z,42.40
2018-06-11T16:33:06.915Z,42.60
2018-06-11T16:37:58.536Z,43.10
2018-06-11T16:42:49.420Z,43.10
2018-06-11T16:47:40.346Z,43.30
2018-06-11T16:52:31.343Z,43.10
2018-06-11T16:57:22.250Z,43.00
2018-06-11T17:02:13.136Z,43.50
2018-06-11T17:07:04.123Z,43.80
2018-06-11T17:11:55.036Z,44.10
2018-06-11T17:16:45.970Z,44.40
2018-06-11T17:21:36.876Z,44.80
2018-06-11T17:26:27.812Z,45.10
2018-06-11T17:31:18.699Z,45.20
2018-06-11T17:36:09.597Z,45.40
2018-06-11T17:41:00.562Z,45.70
2018-06-11T17:45:51.467Z,46.00
2018-06-11T17:50:42.430Z,46.20
2018-06-11T17:55:34.108Z,46.80
2018-06-11T18:00:26.902Z,46.80
2018-06-11T18:05:17.801Z,46.90
2018-06-11T18:10:08.712Z,47.10
2018-06-11T18:14:59.632Z,47.30
2018-06-11T18:19:50.574Z,47.60
2018-06-11T18:24:41.457Z,47.70
2018-06-11T18:29:32.544Z,47.90
2018-06-11T18:34:24.246Z,48.10
2018-06-11T18:39:15.167Z,48.00
2018-06-11T18:44:06.088Z,48.10
2018-06-11T18:48:56.994Z,48.20
2018-06-11T18:53:47.917Z,48.20
2018-06-11T18:58:38.843Z,48.40
2018-06-11T19:03:29.742Z,48.60
2018-06-11T19:08:20.656Z,48.50
2018-06-11T19:13:11.544Z,48.80
2018-06-11T19:18:02.436Z,49.00
2018-06-11T19:22:53.347Z,49.40
2018-06-11T19:27:45.056Z,49.70
2018-06-11T19:32:35.941Z,49.60
2018-06-11T19:37:26.827Z,50.50
2018-06-11T19:42:17.722Z,49.80
2018-06-11T19:47:08.624Z,50.00
2018-06-11T19:51:59.540Z,50.10
2018-06-11T19:56:50.461Z,50.10
2018-06-11T20:01:41.344Z,50.30
2018-06-11T20:06:32.231Z,50.40
2018-06-11T20:11:23.153Z,50.40
2018-06-11T20:16:14.182Z,50.60
2018-06-11T20:21:05.929Z,50.60
2018-06-11T20:25:57.639Z,50.70
2018-06-11T20:30:48.855Z,50.60
2018-06-11T20:35:39.773Z,50.90
2018-06-11T20:40:30.700Z,50.90
2018-06-11T20:45:21.601Z,51.00
2018-06-11T20:50:12.524Z,51.10
2018-06-11T20:55:03.524Z,51.30
2018-06-11T20:59:54.496Z,51.20
2018-06-11T21:04:45.384Z,51.30
2018-06-11T21:09:36.282Z,51.40
2018-06-11T21:14:27.215Z,51.30
2018-06-11T21:19:18.132Z,51.40
2018-06-11T21:24:09.091Z,51.60
2018-06-11T21:28:59.979Z,51.60
2018-06-11T21:33:50.906Z,51.60
2018-06-11T21:38:41.822Z,51.40
2018-06-11T21:43:32.727Z,51.90
2018-06-11T21:48:23.657Z,52.00
2018-06-11T21:53:14.955Z,52.20
2018-06-11T21:58:05.895Z,52.30
2018-06-11T22:02:56.838Z,52.30
2018-06-11T22:07:47.746Z,52.40
2018-06-11T22:12:38.658Z,52.40
2018-06-11T22:17:29.547Z,52.40
2018-06-11T22:22:20.483Z,52.50
2018-06-11T22:27:11.363Z,52.50
2018-06-11T22:32:03.055Z,52.80
2018-06-11T22:36:53.945Z,52.70
2018-06-11T22:41:44.840Z,52.70
2018-06-11T22:46:36.475Z,53.60
2018-06-11T22:51:28.103Z,52.90
2018-06-11T22:56:19.735Z,53.00
2018-06-11T23:01:11.437Z,53.00
2018-06-11T23:06:02.324Z,52.90
2018-06-11T23:10:53.261Z,53.00
2018-06-11T23:15:44.176Z,52.90
2018-06-11T23:20:35.064Z,53.00
2018-06-11T23:25:26.016Z,53.00
2018-06-11T23:30:16.968Z,53.10
2018-06-11T23:35:07.969Z,53.10
2018-06-11T23:39:58.887Z,53.20
2018-06-11T23:44:49.801Z,53.20
2018-06-11T23:49:40.687Z,53.20
2018-06-11T23:54:31.632Z,53.20
2018-06-11T23:59:22.512Z,53.30
